createdAt,value
2022-10-24T00:01:50.191Z,100086.94
2022-10-24T00:04:40.435Z,100084.22
2022-10-24T00:07:27.523Z,100089.91
2022-10-24T00:10:14.242Z,100088.50
2022-10-24T00:13:00.212Z,100095.44
2022-10-24T00:15:47.633Z,100085.66
2022-10-24T00:18:33.588Z,100085.50
2022-10-24T00:21:20.290Z,100080.19
2022-10-24T00:24:07.569Z,100085.19
2022-10-24T00:26:53.969Z,100085.16
2022-10-24T00:29:41.807Z,100090.00
2022-10-24T00:32:28.490Z,100088.16
2022-10-24T00:35:16.102Z,100079.50
2022-10-24T00:38:02.621Z,100073.97
2022-10-24T00:40:48.674Z,100076.75
2022-10-24T00:43:34.819Z,100068.09
2022-10-24T00:46:21.899Z,100067.16
2022-10-24T00:49:08.619Z,100066.41
2022-10-24T00:51:59.479Z,100071.37
2022-10-24T00:54:52.466Z,100069.34
2022-10-24T00:57:46.082Z,100066.47
2022-10-24T01:00:33.675Z,100061.72
2022-10-24T01:03:20.646Z,100058.56
2022-10-24T01:06:10.573Z,100056.31
2022-10-24T01:09:16.844Z,100064.94
2022-10-24T01:12:18.676Z,100060.75
2022-10-24T01:15:14.716Z,100046.25
2022-10-24T01:18:01.452Z,100044.66
2022-10-24T01:20:53.224Z,100053.16
2022-10-24T01:23:49.060Z,100049.63
2022-10-24T01:26:59.225Z,100061.88
2022-10-24T01:30:06.509Z,100069.75
2022-10-24T01:33:07.426Z,100081.84
2022-10-24T01:35:55.358Z,100079.16
2022-10-24T01:38:42.245Z,100072.44
2022-10-24T01:41:29.206Z,100062.03
2022-10-24T01:44:23.052Z,100058.13
2022-10-24T01:47:14.734Z,100063.84
2022-10-24T01:50:02.201Z,100054.78
2022-10-24T01:52:48.431Z,100052.19
2022-10-24T01:55:33.982Z,100057.25
2022-10-24T01:58:20.688Z,100041.44
2022-10-24T02:01:08.599Z,100045.34
2022-10-24T02:04:00.900Z,100050.53
2022-10-24T02:06:47.004Z,100027.94
2022-10-24T02:09:33.013Z,100023.69
2022-10-24T02:12:20.178Z,100022.41
2022-10-24T02:15:27.240Z,100021.22
2022-10-24T02:18:14.478Z,100026.87
2022-10-24T02:21:06.528Z,100027.41
2022-10-24T02:23:54.829Z,100010.75
2022-10-24T02:26:53.194Z,100011.62
2022-10-24T02:29:44.060Z,100013.37
2022-10-24T02:32:41.180Z,100024.03
2022-10-24T02:35:29.814Z,100030.78
2022-10-24T02:38:20.925Z,100031.66
2022-10-24T02:41:13.795Z,100016.75
2022-10-24T02:44:01.801Z,100016.78
2022-10-24T02:46:48.762Z,100021.09
2022-10-24T02:49:34.755Z,100030.03
2022-10-24T02:52:20.951Z,100028.00
2022-10-24T02:55:07.260Z,100041.63
2022-10-24T02:57:53.377Z,100038.66
2022-10-24T03:00:39.410Z,100026.81
2022-10-24T03:03:25.962Z,100026.00
2022-10-24T03:06:11.735Z,100012.59
2022-10-24T03:08:57.540Z,100014.94
2022-10-24T03:11:43.535Z,99996.41
2022-10-24T03:14:29.509Z,99994.69
2022-10-24T03:17:16.764Z,99988.72
2022-10-24T03:20:03.588Z,99992.50
2022-10-24T03:22:49.917Z,99984.00
2022-10-24T03:25:38.743Z,99987.09
2022-10-24T03:28:25.045Z,99994.72
2022-10-24T03:31:11.610Z,99987.38
2022-10-24T03:33:58.198Z,99995.59
2022-10-24T03:36:46.655Z,100008.16
2022-10-24T03:39:34.598Z,100004.00
2022-10-24T03:42:21.778Z,99997.81
2022-10-24T03:45:07.902Z,99998.38
2022-10-24T03:47:53.971Z,99998.41
2022-10-24T03:50:39.988Z,100001.47
2022-10-24T03:53:26.359Z,100009.81
2022-10-24T03:56:13.556Z,100008.75
2022-10-24T03:59:00.386Z,100010.47
2022-10-24T04:01:47.733Z,100020.81
2022-10-24T04:04:34.003Z,100010.97
2022-10-24T04:07:26.631Z,100021.62
2022-10-24T04:10:12.973Z,100016.22
2022-10-24T04:13:01.016Z,100026.87
2022-10-24T04:15:47.849Z,100023.69
2022-10-24T04:18:42.419Z,100015.28
2022-10-24T04:21:30.429Z,100011.28
2022-10-24T04:24:17.551Z,100011.03
2022-10-24T04:27:05.175Z,99999.50
2022-10-24T04:29:51.091Z,100001.12
2022-10-24T04:32:37.568Z,100001.47
2022-10-24T04:35:26.152Z,100003.16
2022-10-24T04:38:14.451Z,100003.56
2022-10-24T04:41:11.237Z,100000.84
2022-10-24T04:44:04.816Z,100008.16
2022-10-24T04:46:57.844Z,100001.28
2022-10-24T04:49:44.368Z,99989.59
2022-10-24T04:52:30.575Z,99980.03
2022-10-24T04:55:18.149Z,99977.50
2022-10-24T04:58:05.497Z,99976.75
2022-10-24T05:00:52.018Z,99977.84
2022-10-24T05:03:39.149Z,99987.16
2022-10-24T05:06:25.847Z,99979.53
2022-10-24T05:09:12.124Z,99986.03
2022-10-24T05:12:07.188Z,99993.25
2022-10-24T05:14:57.238Z,100017.56
2022-10-24T05:17:46.949Z,100007.28
2022-10-24T05:20:42.143Z,100019.09
2022-10-24T05:23:29.629Z,100029.66
2022-10-24T05:26:17.477Z,100027.03
2022-10-24T05:31:59.472Z,100034.91
2022-10-24T05:34:47.274Z,100037.94
2022-10-24T05:37:33.209Z,100036.19
2022-10-24T05:40:19.868Z,100029.53
2022-10-24T05:43:06.141Z,100035.50
2022-10-24T05:45:53.294Z,100035.66
2022-10-24T05:48:39.792Z,100050.97
2022-10-24T05:51:27.615Z,100061.53
2022-10-24T05:54:33.259Z,100066.75
2022-10-24T05:57:30.155Z,100076.12
2022-10-24T06:00:17.859Z,100068.72
2022-10-24T06:03:04.425Z,100062.19
2022-10-24T06:05:55.390Z,100061.50
2022-10-24T06:08:42.891Z,100070.38
2022-10-24T06:11:29.623Z,100055.66
2022-10-24T06:14:20.125Z,100058.34
2022-10-24T06:17:09.254Z,100052.47
2022-10-24T06:19:58.531Z,100046.06
2022-10-24T06:22:46.319Z,100048.34
2022-10-24T06:25:35.035Z,100041.41
2022-10-24T06:28:23.569Z,100033.47
2022-10-24T06:31:12.999Z,100040.41
2022-10-24T06:34:01.230Z,100042.22
2022-10-24T06:36:48.618Z,100027.34
2022-10-24T06:39:34.977Z,100029.06
2022-10-24T06:42:21.507Z,100032.31
2022-10-24T06:45:08.122Z,100037.16
2022-10-24T06:47:58.720Z,100022.12
2022-10-24T06:50:46.525Z,100023.22
2022-10-24T06:53:33.020Z,100039.41
2022-10-24T06:56:24.664Z,100034.41
2022-10-24T06:59:17.005Z,100034.00
2022-10-24T07:02:06.011Z,100043.84
2022-10-24T07:04:53.523Z,100037.78
2022-10-24T07:07:41.331Z,100050.91
2022-10-24T07:10:34.430Z,100065.41
2022-10-24T07:13:20.502Z,100072.41
2022-10-24T07:16:09.627Z,100085.38
2022-10-24T07:18:59.567Z,100090.38
2022-10-24T07:21:46.091Z,100079.97
2022-10-24T07:24:36.497Z,100085.28
2022-10-24T07:27:23.673Z,100082.44
2022-10-24T07:30:11.455Z,100087.53
2022-10-24T07:32:57.922Z,100087.44
2022-10-24T07:35:44.082Z,100074.87
2022-10-24T07:38:31.115Z,100072.31
2022-10-24T07:41:24.510Z,100084.25
2022-10-24T07:44:11.610Z,100083.44
2022-10-24T07:46:59.310Z,100094.09
2022-10-24T07:49:46.166Z,100084.09
2022-10-24T07:52:33.329Z,100100.19
2022-10-24T07:55:19.821Z,100092.41
2022-10-24T07:58:08.693Z,100101.06
2022-10-24T08:01:12.446Z,100098.19
2022-10-24T08:04:00.496Z,100101.78
2022-10-24T08:06:46.903Z,100099.72
2022-10-24T08:09:37.329Z,100100.78
2022-10-24T08:12:23.553Z,100100.81
2022-10-24T08:15:12.406Z,100084.34
2022-10-24T08:17:59.148Z,100087.34
2022-10-24T08:20:45.926Z,100075.66
2022-10-24T08:23:33.510Z,100075.38
2022-10-24T08:26:34.445Z,100076.28
2022-10-24T08:29:25.270Z,100076.00
2022-10-24T08:32:12.442Z,100084.34
2022-10-24T08:34:59.596Z,100079.00
2022-10-24T08:37:46.657Z,100069.72
2022-10-24T08:40:33.235Z,100071.50
2022-10-24T08:43:20.216Z,100067.37
2022-10-24T08:46:10.910Z,100065.44
2022-10-24T08:49:00.367Z,100048.16
2022-10-24T08:51:47.876Z,100054.84
2022-10-24T08:54:37.023Z,100055.50
2022-10-24T08:57:26.397Z,100046.25
2022-10-24T09:00:18.306Z,100056.50
2022-10-24T09:03:43.959Z,100049.66
2022-10-24T09:06:38.447Z,100061.16
2022-10-24T09:09:26.692Z,100051.66
2022-10-24T09:12:17.050Z,100060.72
2022-10-24T09:15:15.800Z,100057.66
2022-10-24T09:18:10.693Z,100053.06
2022-10-24T09:20:57.710Z,100054.09
2022-10-24T09:23:45.235Z,100059.19
2022-10-24T09:26:31.624Z,100060.28
2022-10-24T09:29:17.964Z,100059.72
2022-10-24T09:32:06.581Z,100069.50
2022-10-24T09:34:54.315Z,100066.50
2022-10-24T09:37:49.219Z,100080.03
2022-10-24T09:40:36.153Z,100080.66
2022-10-24T09:43:31.883Z,100094.00
2022-10-24T09:46:19.684Z,100097.75
2022-10-24T09:49:13.390Z,100093.50
2022-10-24T09:52:07.638Z,100098.41
2022-10-24T09:55:14.610Z,100091.50
2022-10-24T09:58:05.452Z,100084.37
2022-10-24T10:01:01.223Z,100089.72
2022-10-24T10:04:08.841Z,100086.66
2022-10-24T10:06:56.898Z,100075.31
2022-10-24T10:09:56.508Z,100072.69
2022-10-24T10:12:43.198Z,100077.78
2022-10-24T10:15:46.102Z,100079.19
2022-10-24T10:18:39.618Z,100070.59
2022-10-24T10:21:27.558Z,100069.34
2022-10-24T10:24:23.811Z,100061.09
2022-10-24T10:27:34.706Z,100063.25
2022-10-24T10:30:25.888Z,100061.88
2022-10-24T10:33:20.102Z,100056.72
2022-10-24T10:36:06.761Z,100065.75
2022-10-24T10:38:59.284Z,100066.16
2022-10-24T10:41:49.763Z,100062.16
2022-10-24T10:44:49.341Z,100056.19
2022-10-24T10:47:47.278Z,100040.97
2022-10-24T10:50:46.451Z,100044.66
2022-10-24T10:54:02.394Z,100052.44
2022-10-24T10:56:56.080Z,100027.91
2022-10-24T11:00:00.409Z,100039.06
2022-10-24T11:03:09.514Z,100042.75
2022-10-24T11:06:13.646Z,100034.00
2022-10-24T11:09:13.919Z,100029.81
2022-10-24T11:12:19.382Z,100031.31
2022-10-24T11:15:23.699Z,100036.44
2022-10-24T11:18:23.454Z,100032.47
2022-10-24T11:21:10.452Z,100028.22
2022-10-24T11:24:03.442Z,100036.97
2022-10-24T11:27:04.508Z,100040.66
2022-10-24T11:29:54.530Z,100041.91
2022-10-24T11:32:45.455Z,100029.94
2022-10-24T11:35:37.399Z,100025.69
2022-10-24T11:38:24.639Z,100026.03
2022-10-24T11:41:50.395Z,100034.91
2022-10-24T11:44:53.948Z,100035.34
2022-10-24T11:47:47.429Z,100033.66
2022-10-24T11:50:51.438Z,100033.53
2022-10-24T11:53:39.465Z,100031.53
2022-10-24T11:56:31.429Z,100027.00
2022-10-24T12:05:47.901Z,100037.41
2022-10-24T12:08:40.794Z,100027.03
2022-10-24T12:11:29.285Z,100023.94
2022-10-24T12:14:22.354Z,100015.69
2022-10-24T12:17:38.030Z,100017.47
2022-10-24T12:20:26.901Z,100006.81
2022-10-24T12:23:23.832Z,99995.63
2022-10-24T12:26:15.038Z,99986.78
2022-10-24T12:29:08.484Z,99985.50
2022-10-24T12:32:08.881Z,99991.09
2022-10-24T12:35:25.395Z,99998.53
2022-10-24T12:38:19.202Z,100011.16
2022-10-24T12:41:10.468Z,100004.66
2022-10-24T12:44:18.568Z,99999.09
2022-10-24T12:47:24.428Z,100000.06
2022-10-24T12:50:22.179Z,99983.94
2022-10-24T12:53:19.484Z,99982.97
2022-10-24T12:56:06.957Z,99978.00
2022-10-24T12:58:58.782Z,99981.25
2022-10-24T13:01:50.064Z,99957.16
2022-10-24T13:07:48.358Z,99963.19
2022-10-24T13:10:59.415Z,99962.78
2022-10-24T13:13:55.006Z,99961.44
2022-10-24T13:16:54.462Z,99954.47
2022-10-24T13:20:26.587Z,99946.09
2022-10-24T13:23:33.697Z,99944.47
2022-10-24T13:26:41.693Z,99938.84
2022-10-24T13:29:31.461Z,99946.69
2022-10-24T13:32:33.454Z,99960.41
2022-10-24T13:35:24.281Z,99956.66
2022-10-24T13:38:11.995Z,99949.38
2022-10-24T13:40:59.802Z,99945.28
2022-10-24T13:43:56.483Z,99948.66
2022-10-24T13:47:08.578Z,99951.47
2022-10-24T13:49:55.033Z,99945.47
2022-10-24T13:52:50.477Z,99948.72
2022-10-24T13:55:40.550Z,99948.22
2022-10-24T13:58:38.943Z,99943.94
2022-10-24T14:01:44.516Z,99939.19
2022-10-24T14:04:38.584Z,99943.09
2022-10-24T14:07:27.185Z,99955.31
2022-10-24T14:10:17.515Z,99943.62
2022-10-24T14:13:08.550Z,99930.34
2022-10-24T14:16:05.847Z,99935.66
2022-10-24T14:19:15.326Z,99936.66
2022-10-24T14:22:19.080Z,99928.72
2022-10-24T14:25:07.441Z,99929.09
2022-10-24T14:27:56.425Z,99931.09
2022-10-24T14:31:00.557Z,99942.34
2022-10-24T14:33:57.636Z,99942.63
2022-10-24T14:36:56.045Z,99936.12
2022-10-24T14:39:52.699Z,99928.03
2022-10-24T14:42:43.422Z,99939.50
2022-10-24T14:45:42.824Z,99929.41
2022-10-24T14:48:31.666Z,99937.66
2022-10-24T14:54:39.608Z,99935.94
2022-10-24T14:57:40.216Z,99930.34
2022-10-24T15:00:38.125Z,99943.62
2022-10-24T15:03:35.477Z,99944.62
2022-10-24T15:06:26.213Z,99946.34
2022-10-24T15:09:13.442Z,99939.16
2022-10-24T15:12:01.557Z,99936.03
2022-10-24T15:15:10.523Z,99933.13
2022-10-24T15:21:11.193Z,99935.94
2022-10-24T15:27:34.470Z,99930.28
2022-10-24T15:30:30.246Z,99924.00
2022-10-24T15:33:24.515Z,99922.00
2022-10-24T15:36:20.436Z,99927.25
2022-10-24T15:42:11.468Z,99924.84
2022-10-24T15:45:19.446Z,99926.28
2022-10-24T15:48:10.237Z,99924.22
2022-10-24T15:50:58.776Z,99926.47
2022-10-24T15:54:07.645Z,99922.34
2022-10-24T15:57:05.337Z,99921.25
2022-10-24T16:00:02.508Z,99917.25
2022-10-24T16:03:02.488Z,99902.41
2022-10-24T16:05:52.461Z,99897.72
2022-10-24T16:08:42.921Z,99914.06
2022-10-24T16:14:39.711Z,99932.50
2022-10-24T16:17:35.567Z,99924.94
2022-10-24T16:23:18.551Z,99905.09
2022-10-24T16:26:07.658Z,99905.47
2022-10-24T16:29:14.547Z,99924.53
2022-10-24T16:32:02.715Z,99925.00
2022-10-24T16:34:56.502Z,99922.53
2022-10-24T16:37:51.410Z,99916.56
2022-10-24T16:43:50.034Z,99907.50
2022-10-24T16:55:51.920Z,99916.34
2022-10-24T16:58:45.748Z,99926.44
2022-10-24T17:01:47.568Z,99915.59
2022-10-24T17:04:37.632Z,99920.91
2022-10-24T17:07:32.467Z,99920.94
2022-10-24T17:10:31.737Z,99917.16
2022-10-24T17:13:32.430Z,99920.56
2022-10-24T17:16:26.496Z,99920.88
2022-10-24T17:19:16.565Z,99921.56
2022-10-24T17:22:23.948Z,99920.81
2022-10-24T17:25:33.422Z,99906.31
2022-10-24T17:28:33.561Z,99916.06
2022-10-24T17:31:26.637Z,99919.72
2022-10-24T17:34:28.518Z,99917.22
2022-10-24T17:37:33.812Z,99909.56
2022-10-24T17:40:29.528Z,99908.63
2022-10-24T17:43:29.458Z,99906.62
2022-10-24T17:46:28.482Z,99897.41
2022-10-24T17:49:24.988Z,99899.97
2022-10-24T17:52:29.487Z,99907.13
2022-10-24T17:55:41.352Z,99909.37
2022-10-24T17:58:38.281Z,99903.41
2022-10-24T18:01:33.962Z,99898.56
2022-10-24T18:04:25.258Z,99906.41
2022-10-24T18:07:39.369Z,99914.63
2022-10-24T18:10:33.472Z,99911.03
2022-10-24T18:13:23.798Z,99917.25
2022-10-24T18:16:30.018Z,99902.00
2022-10-24T18:19:24.104Z,99907.13
2022-10-24T18:22:13.546Z,99900.28
2022-10-24T18:25:07.392Z,99897.28
2022-10-24T18:27:59.565Z,99894.84
2022-10-24T18:30:59.492Z,99898.69
2022-10-24T18:33:54.061Z,99905.69
2022-10-24T18:36:44.658Z,99898.31
2022-10-24T18:39:38.343Z,99900.38
2022-10-24T18:45:25.895Z,99901.50
2022-10-24T18:48:13.774Z,99891.22
2022-10-24T18:51:16.600Z,99891.03
2022-10-24T18:57:19.541Z,99866.47
2022-10-24T19:00:10.428Z,99861.53
2022-10-24T19:03:25.445Z,99856.31
2022-10-24T19:06:24.413Z,99857.16
2022-10-24T19:09:29.510Z,99874.75
2022-10-24T19:12:22.570Z,99863.53
2022-10-24T19:15:14.526Z,99871.09
2022-10-24T19:18:03.673Z,99870.50
2022-10-24T19:20:56.959Z,99869.84
2022-10-24T19:26:52.444Z,99861.41
2022-10-24T19:29:43.465Z,99870.19
2022-10-24T19:32:39.482Z,99856.47
2022-10-24T19:35:28.102Z,99856.28
2022-10-24T19:38:31.482Z,99861.59
2022-10-24T19:41:21.050Z,99856.31
2022-10-24T19:44:13.689Z,99854.25
2022-10-24T19:47:03.645Z,99845.84
2022-10-24T19:49:58.764Z,99856.59
2022-10-24T19:52:55.477Z,99854.50
2022-10-24T19:55:44.146Z,99859.16
2022-10-24T19:58:30.912Z,99862.91
2022-10-24T20:01:23.908Z,99852.38
2022-10-24T20:04:19.102Z,99825.19
2022-10-24T20:10:14.538Z,99807.41
2022-10-24T20:13:15.482Z,99812.53
2022-10-24T20:16:18.455Z,99818.09
2022-10-24T20:19:06.622Z,99831.97
2022-10-24T20:21:55.937Z,99827.59
2022-10-24T20:33:42.823Z,99838.12
2022-10-24T20:39:24.035Z,99833.28
2022-10-24T20:42:12.076Z,99831.19
2022-10-24T20:45:02.478Z,99827.03
2022-10-24T20:47:49.871Z,99838.53
2022-10-24T20:50:43.278Z,99831.16
2022-10-24T20:53:41.422Z,99835.75
2022-10-24T20:56:28.084Z,99840.75
2022-10-24T20:59:17.100Z,99847.87
2022-10-24T21:02:04.619Z,99852.94
2022-10-24T21:04:53.501Z,99853.06
2022-10-24T21:07:42.475Z,99851.88
2022-10-24T21:10:31.849Z,99841.53
2022-10-24T21:13:19.385Z,99848.31
2022-10-24T21:16:10.287Z,99845.62
2022-10-24T21:18:57.371Z,99842.72
2022-10-24T21:21:47.511Z,99847.53
2022-10-24T21:24:34.565Z,99853.12
2022-10-24T21:27:21.674Z,99849.72
2022-10-24T21:30:14.579Z,99850.75
2022-10-24T21:33:04.949Z,99854.59
2022-10-24T21:35:52.281Z,99852.41
2022-10-24T21:38:38.341Z,99854.94
2022-10-24T21:41:26.586Z,99859.41
2022-10-24T21:44:19.215Z,99870.81
2022-10-24T21:47:05.488Z,99877.34
2022-10-24T21:49:51.588Z,99884.34
2022-10-24T21:52:37.901Z,99884.94
2022-10-24T21:55:23.802Z,99887.25
2022-10-24T21:58:10.280Z,99897.62
2022-10-24T22:00:56.393Z,99896.09
2022-10-24T22:03:43.306Z,99885.75
2022-10-24T22:06:30.200Z,99881.25
2022-10-24T22:09:18.098Z,99879.41
2022-10-24T22:12:06.069Z,99884.22
2022-10-24T22:14:53.326Z,99873.53
2022-10-24T22:17:39.185Z,99869.13
2022-10-24T22:20:25.744Z,99875.66
2022-10-24T23:08:47.373Z,99860.28
